Aeroporto :
LOGIN :

Iscrizione | Disclaimer

   EN    FR    IT 

 










Sommario :    VFR   VFR Marginale   IFR   IFR Intensivo   IFR Molto Intensivo
Visibilità : 
Base nubi : 
>= 8 km
>= 3000ft
5 / 8 km
1000 / 3000 ft
1500m / 5 km
500 / 1000 ft
800 / 1500m
200 / 500 ft
< 800m
< 200 ft
Simboli :   Temporali  Nebbia  Neve Forte  Precipitazioni Forti  Vento > 20 kt
SIGMETs :   Varie  Temporali  Ghiacco  Turbolenza  Onda orograficha  Ceneri Vulcaniche







- Altitudine del aeroporto : 791 ft
- Codice IATA : KRK


EPKK - Krakow-Balice

ULTIMO METAR :
  • 240200Z 22002KT 7000 BKN023 18/17 Q1019

METARs OBSOLETI :
  • 240130Z 24003KT 7000 BKN025 18/17 Q1019
  • 240100Z 20003KT 8000 BKN026 18/17 Q1019
  • 240030Z VRB01KT 9999 FEW007 BKN026 18/17 Q1020
  • 240000Z 18001KT 8000 FEW007 BKN027 18/17 Q1020
  • 232330Z 25004KT 9999 OVC026 18/17 Q1020

TAF TAF EPKK
Valido dal 24 a 00 ore il 25 a 00 ore UTC


232330Z 2400/2424 25006KT 9999 BKN030
TEMPO 2400/2407 BKN013
PROB40 2400/2406 3000 BR BKN006 BKN012
TEMPO 2411/2415 31010KT SHRA BKN030CB
TEMPO 2421/2424 2000 BR BKN006
Nessun NOTAM noto per questo aeroporto.



MetMap, La meteo Aeronautica in un colpo d'occhio ! - Copyright ORBIFLY Dicembre 2007 - Disclaimer

ORBIFLY MET'MAP TEAM :

Programmazione e sviluppo : Alexandra Zaïnal
Concezione e sviluppo : Baudouin d'Aumeries
Co-Programmazione e sviluppo : Marc-Olivier Méhu
Supporto tecnico e logistico : Manuel Goepfert
Aiuto per la traduzione : Arnaldo La Scala

Contatto : metmap@orbifly.com




FONTI E CREDITI :

   NOAA